Time;durP1;ratioP1;P1;durP2;ratioP2;P2;SDS_P1;SDS_P2;PMS_P1;PMS_P2;Temp;Humidity;BMP_temperature;BMP_pressure;BME280_temperature;BME280_humidity;BME280_pressure;Samples;Min_cycle;Max_cycle;Signal;HPM_P1;HPM_P2
2021/04/14 00:00:53;;;;;;;5.33;4.43;;;7.40;46.40;;;;;;5027771;28;20441;-43
2021/04/14 00:03:24;;;;;;;3.80;3.50;;;7.40;46.50;;;;;;5019494;28;20696;-46
2021/04/14 00:05:52;;;;;;;7.20;4.10;;;7.50;46.40;;;;;;5025630;28;20220;-43
2021/04/14 00:08:18;;;;;;;3.90;3.30;;;7.40;46.60;;;;;;5014393;28;20855;-45
2021/04/14 00:10:46;;;;;;;6.90;3.73;;;7.30;46.90;;;;;;5020659;28;20433;-46
2021/04/14 00:13:17;;;;;;;6.27;4.43;;;7.20;46.80;;;;;;5024438;28;20487;-47
2021/04/14 00:15:49;;;;;;;6.10;4.23;;;7.10;47.30;;;;;;5024791;28;20439;-42
2021/04/14 00:18:17;;;;;;;6.93;3.87;;;7.00;47.70;;;;;;5024504;28;20473;-45
2021/04/14 00:20:43;;;;;;;5.30;4.27;;;6.90;47.80;;;;;;5014968;28;20440;-44
2021/04/14 00:23:10;;;;;;;5.40;3.77;;;6.90;47.90;;;;;;5026568;28;20437;-43
2021/04/14 00:25:39;;;;;;;4.80;3.90;;;6.80;48.00;;;;;;5034422;28;20801;-47
2021/04/14 00:28:05;;;;;;;4.33;3.93;;;6.70;48.40;;;;;;5018840;28;20440;-44
2021/04/14 00:30:31;;;;;;;4.80;3.93;;;6.50;48.70;;;;;;5030589;28;20433;-43
2021/04/14 00:32:57;;;;;;;4.03;3.63;;;6.50;49.00;;;;;;5023685;28;21243;-44
2021/04/14 00:35:24;;;;;;;6.27;4.20;;;6.50;49.00;;;;;;5026732;28;20961;-45
2021/04/14 00:37:50;;;;;;;3.80;3.40;;;6.60;48.80;;;;;;5019115;28;20437;-43
2021/04/14 00:40:30;;;;;;;4.00;3.30;;;6.70;48.80;;;;;;5022040;28;20909;-44
2021/04/14 00:42:57;;;;;;;4.40;3.60;;;6.70;48.40;;;;;;5029702;28;20189;-44
2021/04/14 00:45:24;;;;;;;3.60;3.10;;;6.80;48.10;;;;;;5023395;28;20442;-44
2021/04/14 00:47:50;;;;;;;8.33;3.83;;;7.00;47.70;;;;;;5025455;28;20444;-46
2021/04/14 00:50:18;;;;;;;4.40;4.00;;;7.00;47.50;;;;;;5016131;28;20796;-44
2021/04/14 00:52:44;;;;;;;4.10;3.70;;;7.00;47.30;;;;;;5018288;28;20467;-43
2021/04/14 00:55:14;;;;;;;4.50;4.10;;;7.10;47.20;;;;;;5026563;28;20439;-44
2021/04/14 00:57:40;;;;;;;4.00;3.60;;;7.00;47.00;;;;;;5029274;28;20491;-45
2021/04/14 01:00:16;;;;;;;5.73;3.83;;;7.00;46.90;;;;;;5025912;28;20428;-44
2021/04/14 01:02:42;;;;;;;8.80;4.27;;;7.00;47.00;;;;;;5020680;28;20193;-47
2021/04/14 01:05:13;;;;;;;4.90;4.33;;;7.00;47.00;;;;;;5019973;28;20556;-43
2021/04/14 01:07:39;;;;;;;4.07;3.53;;;7.00;47.10;;;;;;5021640;28;20182;-42
2021/04/14 01:10:05;;;;;;;5.27;4.77;;;7.00;47.30;;;;;;5029470;28;20435;-43
2021/04/14 01:12:31;;;;;;;4.50;3.43;;;6.80;47.50;;;;;;5021821;28;20486;-44
2021/04/14 01:14:57;;;;;;;4.67;3.97;;;6.70;47.80;;;;;;5026380;28;20445;-43
2021/04/14 01:17:22;;;;;;;6.50;3.90;;;6.40;48.60;;;;;;5021662;28;20194;-44
2021/04/14 01:19:48;;;;;;;5.30;4.30;;;6.30;49.30;;;;;;5017135;28;20438;-46
2021/04/14 01:22:13;;;;;;;4.97;4.10;;;6.40;49.20;;;;;;5019682;28;20190;-43
2021/04/14 01:24:39;;;;;;;5.43;3.90;;;6.30;49.20;;;;;;5022399;28;20205;-44
2021/04/14 01:27:05;;;;;;;5.10;4.00;;;6.30;49.20;;;;;;5023206;28;20261;-44
2021/04/14 01:29:31;;;;;;;5.50;3.83;;;6.40;49.10;;;;;;5024857;28;20201;-43
2021/04/14 01:31:56;;;;;;;5.00;3.87;;;6.40;49.10;;;;;;5018423;28;20924;-44
2021/04/14 01:34:22;;;;;;;5.17;3.77;;;6.30;49.10;;;;;;5025276;28;20652;-42
2021/04/14 01:36:48;;;;;;;4.70;4.27;;;6.40;49.10;;;;;;5020178;28;20297;-44
2021/04/14 01:39:15;;;;;;;4.87;3.73;;;6.40;48.90;;;;;;5029981;28;20637;-48
2021/04/14 01:41:42;;;;;;;4.30;3.40;;;6.30;49.10;;;;;;5024748;28;20266;-43
2021/04/14 01:44:11;;;;;;;4.43;3.20;;;5.90;49.30;;;;;;5027451;28;20454;-44
2021/04/14 01:46:38;;;;;;;5.57;4.27;;;5.80;50.00;;;;;;5020489;28;20448;-43
2021/04/14 01:49:05;;;;;;;5.53;3.63;;;5.70;50.40;;;;;;5019349;28;20527;-47
2021/04/14 01:51:31;;;;;;;6.23;4.93;;;5.40;51.40;;;;;;5024969;28;20520;-43
2021/04/14 01:53:56;;;;;;;4.40;3.80;;;5.40;51.20;;;;;;5024213;28;20583;-43
2021/04/14 01:56:22;;;;;;;4.07;3.50;;;5.30;51.40;;;;;;5019123;28;20190;-46
2021/04/14 01:58:48;;;;;;;4.23;3.80;;;5.30;51.50;;;;;;5019500;28;20189;-44
2021/04/14 02:01:14;;;;;;;6.83;3.67;;;5.40;51.50;;;;;;5026274;28;20455;-43
2021/04/14 02:03:40;;;;;;;4.00;3.60;;;5.30;51.70;;;;;;5027349;28;20554;-44
2021/04/14 02:06:12;;;;;;;5.57;3.67;;;5.40;51.60;;;;;;5024963;28;20198;-45
2021/04/14 02:08:38;;;;;;;4.30;3.73;;;5.50;51.20;;;;;;5024324;28;20436;-45
2021/04/14 02:11:05;;;;;;;6.20;3.60;;;5.60;51.10;;;;;;5018323;28;20437;-44
2021/04/14 02:13:33;;;;;;;3.57;3.27;;;5.60;50.80;;;;;;5016449;28;20494;-44
2021/04/14 02:15:59;;;;;;;3.73;3.43;;;5.70;50.50;;;;;;5012723;28;20437;-43
2021/04/14 02:18:25;;;;;;;6.83;3.73;;;5.90;50.10;;;;;;5020070;28;20460;-46
2021/04/14 02:20:51;;;;;;;3.77;3.30;;;5.90;49.80;;;;;;5022122;28;20655;-44
2021/04/14 02:23:22;;;;;;;10.20;3.53;;;6.00;49.70;;;;;;5024561;28;20436;-43
2021/04/14 02:25:48;;;;;;;4.90;3.43;;;5.80;49.80;;;;;;5017838;28;20448;-45
2021/04/14 02:28:15;;;;;;;8.07;3.97;;;5.70;50.10;;;;;;5024841;28;20523;-45
2021/04/14 02:30:41;;;;;;;3.27;3.00;;;5.70;50.30;;;;;;5021269;28;20436;-46
2021/04/14 02:33:07;;;;;;;4.20;3.67;;;5.80;50.20;;;;;;5015392;28;20489;-44
2021/04/14 02:35:33;;;;;;;3.53;2.70;;;5.90;50.00;;;;;;5022899;28;20515;-45
2021/04/14 02:37:59;;;;;;;5.57;3.70;;;5.90;49.60;;;;;;5014534;28;20795;-44
2021/04/14 02:40:25;;;;;;;4.30;3.63;;;6.00;49.50;;;;;;5022460;28;20442;-43
2021/04/14 02:42:51;;;;;;;3.40;2.90;;;6.10;49.30;;;;;;5024364;28;20799;-45
2021/04/14 02:45:20;;;;;;;3.40;3.10;;;6.00;49.40;;;;;;5025505;28;20433;-46
2021/04/14 02:47:46;;;;;;;7.00;3.03;;;6.00;49.60;;;;;;5020573;28;20780;-44
2021/04/14 02:50:13;;;;;;;7.53;4.00;;;6.00;49.60;;;;;;5021965;28;20519;-43
2021/04/14 02:52:38;;;;;;;6.23;3.37;;;6.10;49.40;;;;;;5000592;28;20560;-43
2021/04/14 02:55:06;;;;;;;7.17;3.93;;;6.10;49.10;;;;;;5024358;28;20436;-43
2021/04/14 02:57:32;;;;;;;4.83;3.17;;;6.10;49.00;;;;;;5016657;28;20185;-47
2021/04/14 02:59:57;;;;;;;3.60;3.30;;;6.20;49.10;;;;;;5026055;28;20440;-45
2021/04/14 03:02:23;;;;;;;7.30;3.30;;;6.20;48.80;;;;;;5025622;28;20200;-45
2021/04/14 03:04:49;;;;;;;5.10;3.47;;;6.20;48.70;;;;;;5028780;28;20661;-46
2021/04/14 03:07:14;;;;;;;4.40;3.57;;;6.20;49.20;;;;;;5029976;28;20196;-43
2021/04/14 03:09:40;;;;;;;3.50;3.20;;;6.20;48.80;;;;;;5020054;28;20197;-44
2021/04/14 03:12:08;;;;;;;6.20;3.50;;;6.20;49.00;;;;;;5018472;28;20561;-43
2021/04/14 03:14:34;;;;;;;3.87;3.50;;;6.00;49.10;;;;;;5030336;28;20225;-47
2021/04/14 03:17:00;;;;;;;6.27;3.90;;;5.70;49.70;;;;;;5018510;28;20429;-43
2021/04/14 03:19:26;;;;;;;5.00;3.50;;;5.40;50.40;;;;;;5026824;28;20237;-43
2021/04/14 03:21:52;;;;;;;3.73;3.40;;;5.00;51.20;;;;;;5022922;28;20494;-45
2021/04/14 03:24:17;;;;;;;4.80;3.37;;;4.90;52.00;;;;;;5033764;28;20572;-45
2021/04/14 03:26:43;;;;;;;4.60;3.87;;;5.10;52.00;;;;;;5029799;28;20258;-43
2021/04/14 03:29:09;;;;;;;4.10;3.73;;;5.10;52.00;;;;;;5028415;28;20970;-44
2021/04/14 03:31:35;;;;;;;5.27;3.37;;;4.80;52.10;;;;;;5022753;28;20279;-46
2021/04/14 03:34:00;;;;;;;4.70;3.60;;;4.80;52.20;;;;;;5027726;28;20228;-44
2021/04/14 03:36:26;;;;;;;3.73;3.43;;;4.90;52.00;;;;;;5023193;28;20213;-44
2021/04/14 03:38:52;;;;;;;4.97;3.60;;;5.00;51.70;;;;;;5021083;28;20545;-44
2021/04/14 03:41:17;;;;;;;5.03;3.70;;;5.10;51.60;;;;;;5030812;28;20193;-44
2021/04/14 03:43:43;;;;;;;5.53;3.67;;;5.20;51.10;;;;;;5031885;28;20598;-43
2021/04/14 03:46:09;;;;;;;9.50;3.47;;;5.10;51.00;;;;;;5018299;28;20277;-44
2021/04/14 03:48:35;;;;;;;4.27;3.87;;;5.10;51.30;;;;;;5028617;28;20602;-45
2021/04/14 03:51:01;;;;;;;4.57;3.23;;;5.10;51.30;;;;;;5028438;28;20630;-43
2021/04/14 03:53:30;;;;;;;4.37;3.70;;;5.20;51.70;;;;;;5031366;28;20501;-43
2021/04/14 03:56:02;;;;;;;3.70;3.37;;;5.30;50.80;;;;;;5015399;28;20437;-44
2021/04/14 03:58:29;;;;;;;4.50;3.77;;;5.20;50.70;;;;;;5027789;28;20432;-45
2021/04/14 04:00:56;;;;;;;4.30;3.70;;;5.10;51.00;;;;;;5019284;28;20804;-45
2021/04/14 04:03:24;;;;;;;4.17;2.97;;;5.10;51.10;;;;;;5018754;28;20439;-46
2021/04/14 04:05:50;;;;;;;7.73;4.00;;;5.00;51.30;;;;;;5020837;28;21250;-44
2021/04/14 04:08:16;;;;;;;4.37;3.60;;;5.20;51.20;;;;;;5030768;28;20428;-45
2021/04/14 04:10:41;;;;;;;4.70;3.30;;;5.20;51.00;;;;;;5023273;28;20198;-45
2021/04/14 04:13:07;;;;;;;3.50;2.83;;;5.20;50.70;;;;;;5021870;28;20213;-44
2021/04/14 04:15:35;;;;;;;4.83;3.60;;;5.30;50.60;;;;;;5029456;28;20252;-45
2021/04/14 04:18:02;;;;;;;4.43;3.83;;;5.30;50.70;;;;;;5023469;28;20521;-46
2021/04/14 04:20:28;;;;;;;4.87;3.43;;;5.30;50.60;;;;;;5030584;28;20919;-43
2021/04/14 04:22:54;;;;;;;4.10;3.70;;;5.30;50.30;;;;;;5028423;28;20444;-46
2021/04/14 04:25:20;;;;;;;3.50;3.20;;;5.10;50.80;;;;;;5029338;28;20844;-43
2021/04/14 04:27:45;;;;;;;6.73;3.93;;;5.10;51.10;;;;;;5019490;28;20247;-44
2021/04/14 04:30:11;;;;;;;4.30;3.67;;;5.20;50.80;;;;;;5025685;28;20259;-44
2021/04/14 04:32:37;;;;;;;11.10;3.13;;;5.20;50.80;;;;;;5026768;28;20196;-44
2021/04/14 04:35:04;;;;;;;4.70;3.33;;;5.30;50.80;;;;;;5025391;28;20439;-44
2021/04/14 04:37:30;;;;;;;4.10;3.60;;;5.20;50.70;;;;;;5026089;28;20562;-47
2021/04/14 04:39:55;;;;;;;4.70;3.80;;;5.30;50.80;;;;;;5023123;28;20491;-45
2021/04/14 04:42:21;;;;;;;4.30;3.90;;;5.20;50.90;;;;;;5027167;28;20239;-46
2021/04/14 04:44:46;;;;;;;14.13;4.17;;;5.20;51.50;;;;;;5021883;28;20564;-44
2021/04/14 04:47:12;;;;;;;7.50;4.93;;;5.30;50.80;;;;;;5028954;28;20665;-47
2021/04/14 04:49:38;;;;;;;5.93;5.00;;;5.40;50.50;;;;;;5029851;28;20201;-44
2021/04/14 04:52:04;;;;;;;5.27;4.10;;;5.50;50.30;;;;;;5023349;28;20559;-43
2021/04/14 04:54:33;;;;;;;7.67;4.27;;;5.50;50.20;;;;;;5023310;28;20230;-42
2021/04/14 04:56:58;;;;;;;4.13;3.60;;;5.50;50.10;;;;;;5024221;28;20869;-43
2021/04/14 04:59:24;;;;;;;3.67;3.30;;;5.60;50.00;;;;;;5019641;28;20520;-46
2021/04/14 05:01:52;;;;;;;4.37;3.87;;;5.60;50.00;;;;;;5003383;28;20189;-44
2021/04/14 05:04:19;;;;;;;5.17;4.00;;;5.50;50.20;;;;;;5021461;28;20225;-46
2021/04/14 05:06:45;;;;;;;7.40;3.67;;;5.50;50.20;;;;;;5014895;28;20433;-42
2021/04/14 05:09:10;;;;;;;6.33;3.57;;;5.60;50.30;;;;;;5029088;28;20455;-43
2021/04/14 05:11:36;;;;;;;6.20;3.90;;;5.60;50.20;;;;;;5026726;28;20276;-41
2021/04/14 05:14:01;;;;;;;4.43;3.20;;;5.60;51.00;;;;;;5028109;28;20286;-42
2021/04/14 05:16:27;;;;;;;4.70;3.57;;;6.00;53.20;;;;;;5024276;28;20212;-42
2021/04/14 05:18:52;;;;;;;5.30;4.40;;;6.30;51.90;;;;;;5032462;28;20284;-42
2021/04/14 05:21:20;;;;;;;14.93;5.13;;;6.60;50.20;;;;;;5030545;28;20193;-43
2021/04/14 05:23:46;;;;;;;9.73;4.87;;;6.80;49.90;;;;;;5023609;28;20197;-44
2021/04/14 05:26:11;;;;;;;5.33;3.93;;;7.00;51.50;;;;;;5023740;28;20433;-43
2021/04/14 05:28:37;;;;;;;6.33;4.30;;;7.40;51.00;;;;;;5028165;28;20463;-42
2021/04/14 05:31:02;;;;;;;8.70;4.20;;;7.70;50.20;;;;;;5019653;28;20197;-43
2021/04/14 05:33:28;;;;;;;4.30;3.60;;;7.90;48.00;;;;;;5021800;28;20949;-42
2021/04/14 05:35:55;;;;;;;4.10;3.70;;;8.10;47.80;;;;;;5017189;28;20325;-42
2021/04/14 05:38:20;;;;;;;4.57;3.80;;;8.30;47.40;;;;;;5020735;28;20194;-44
2021/04/14 05:40:46;;;;;;;3.80;3.50;;;8.40;46.40;;;;;;5028002;28;20436;-42
2021/04/14 05:43:16;;;;;;;4.73;3.73;;;8.30;45.00;;;;;;5014183;28;20563;-43
2021/04/14 05:45:42;;;;;;;4.20;3.80;;;8.30;45.70;;;;;;5024215;28;20604;-42
2021/04/14 05:48:07;;;;;;;4.27;3.70;;;8.20;45.20;;;;;;5026304;28;20535;-42
2021/04/14 05:50:33;;;;;;;4.93;3.73;;;8.20;45.40;;;;;;5018990;28;20519;-42
2021/04/14 05:52:59;;;;;;;4.10;3.70;;;8.40;45.50;;;;;;5013860;28;20475;-42
2021/04/14 05:55:25;;;;;;;4.63;3.43;;;8.50;45.30;;;;;;5016545;28;20194;-42
2021/04/14 05:57:50;;;;;;;3.80;3.50;;;8.40;44.60;;;;;;5027370;28;20569;-43
2021/04/14 06:00:17;;;;;;;5.87;5.30;;;8.40;45.00;;;;;;5021290;28;20567;-43
2021/04/14 06:02:43;;;;;;;4.57;4.17;;;8.50;45.40;;;;;;5023606;28;20205;-42
2021/04/14 06:05:11;;;;;;;5.00;4.50;;;8.50;44.80;;;;;;5025196;28;20428;-42
2021/04/14 06:07:36;;;;;;;5.90;4.07;;;8.60;45.00;;;;;;5029538;28;20535;-42
2021/04/14 06:10:03;;;;;;;4.10;3.80;;;8.20;45.40;;;;;;5024991;28;20462;-42
2021/04/14 06:12:29;;;;;;;5.33;4.40;;;8.10;45.60;;;;;;5025726;28;20197;-42
2021/04/14 06:14:54;;;;;;;6.77;3.93;;;8.20;45.80;;;;;;5012053;28;20896;-42
2021/04/14 06:17:20;;;;;;;4.27;3.87;;;8.50;45.30;;;;;;5019128;28;20186;-42
2021/04/14 06:19:46;;;;;;;4.93;4.40;;;8.60;45.30;;;;;;5020536;28;20205;-42
2021/04/14 06:22:11;;;;;;;11.30;8.57;;;8.80;44.80;;;;;;5022014;28;20194;-42
2021/04/14 06:24:37;;;;;;;6.57;4.80;;;9.00;44.50;;;;;;5024463;28;20244;-43
2021/04/14 06:27:06;;;;;;;9.90;5.00;;;9.10;45.00;;;;;;5020752;28;20190;-42
2021/04/14 06:29:31;;;;;;;4.90;4.40;;;9.20;44.30;;;;;;5025671;28;20535;-42
2021/04/14 06:31:58;;;;;;;7.67;4.00;;;9.30;44.10;;;;;;5026738;28;20987;-43
2021/04/14 06:34:25;;;;;;;4.90;4.50;;;9.40;43.80;;;;;;5027785;28;20219;-43
2021/04/14 06:36:55;;;;;;;7.97;4.47;;;9.50;43.50;;;;;;5022449;28;20440;-42
2021/04/14 06:39:22;;;;;;;4.90;4.40;;;9.60;43.60;;;;;;5028336;28;20431;-41
2021/04/14 06:42:32;;;;;;;7.63;4.97;;;9.90;43.80;;;;;;5029665;28;20444;-42
2021/04/14 06:45:13;;;;;;;6.50;4.13;;;10.10;42.30;;;;;;5026544;28;20447;-42
2021/04/14 06:47:51;;;;;;;6.00;3.93;;;10.30;42.10;;;;;;5030310;28;20599;-42
2021/04/14 06:50:23;;;;;;;6.23;4.33;;;10.50;41.70;;;;;;5020289;28;20478;-43
2021/04/14 06:53:04;;;;;;;8.73;7.07;;;10.80;41.30;;;;;;5022750;28;20470;-44
2021/04/14 06:55:35;;;;;;;4.77;4.10;;;11.00;40.90;;;;;;5030011;28;20518;-43
2021/04/14 06:58:10;;;;;;;4.63;3.90;;;11.30;40.60;;;;;;5035071;28;20431;-42
2021/04/14 07:00:43;;;;;;;4.43;4.03;;;11.50;40.10;;;;;;5026488;28;20446;-43
2021/04/14 07:03:16;;;;;;;6.20;5.17;;;11.70;39.50;;;;;;5030688;28;20439;-42
2021/04/14 07:05:46;;;;;;;7.53;4.03;;;11.90;39.30;;;;;;5034389;28;20424;-46
2021/04/14 07:08:40;;;;;;;6.17;5.00;;;12.10;39.30;;;;;;5035063;28;20911;-43
2021/04/14 07:11:08;;;;;;;5.30;4.80;;;12.30;38.80;;;;;;5033580;28;20546;-43
2021/04/14 07:13:36;;;;;;;6.67;5.80;;;12.40;38.20;;;;;;5035058;28;20888;-46
2021/04/14 07:16:37;;;;;;;5.70;5.10;;;12.40;38.30;;;;;;5021156;28;20457;-45
2021/04/14 07:19:15;;;;;;;7.67;5.17;;;12.50;38.00;;;;;;5031677;28;20471;-42
2021/04/14 07:22:02;;;;;;;7.07;5.33;;;12.60;37.90;;;;;;5023764;28;20439;-43
2021/04/14 07:24:36;;;;;;;7.10;5.70;;;12.70;38.00;;;;;;5034627;28;20789;-43
2021/04/14 07:27:23;;;;;;;5.87;4.60;;;12.50;38.20;;;;;;5017951;28;20444;-43
2021/04/14 07:29:52;;;;;;;5.57;5.07;;;12.50;38.20;;;;;;5021450;28;20814;-43
2021/04/14 07:32:28;;;;;;;5.30;4.83;;;12.70;38.20;;;;;;5029445;28;20427;-42
2021/04/14 07:35:00;;;;;;;9.70;6.10;;;12.90;38.00;;;;;;5023399;28;20571;-43
2021/04/14 07:37:41;;;;;;;8.00;5.27;;;13.00;37.80;;;;;;5029192;28;20819;-43
2021/04/14 07:40:25;;;;;;;8.67;6.73;;;13.10;37.80;;;;;;5022001;28;20567;-42
2021/04/14 07:43:13;;;;;;;7.53;5.57;;;13.20;38.10;;;;;;5027599;28;20428;-43
2021/04/14 07:45:39;;;;;;;6.70;6.10;;;13.30;37.70;;;;;;5027708;28;20471;-44
2021/04/14 07:48:08;;;;;;;7.30;5.93;;;13.30;37.60;;;;;;5014819;28;20471;-44
2021/04/14 07:50:42;;;;;;;6.10;5.43;;;13.40;37.50;;;;;;5026535;28;20441;-45
2021/04/14 07:53:29;;;;;;;6.60;4.53;;;13.60;37.20;;;;;;5027704;28;20518;-47
2021/04/14 07:56:20;;;;;;;5.40;4.40;;;13.60;36.60;;;;;;5022414;28;21322;-44
2021/04/14 07:58:46;;;;;;;7.20;5.57;;;13.70;36.30;;;;;;5024104;28;20441;-43
2021/04/14 08:01:14;;;;;;;6.70;5.27;;;13.80;36.60;;;;;;5024364;28;20792;-45
2021/04/14 08:03:40;;;;;;;5.70;5.13;;;13.80;36.20;;;;;;5025302;28;20448;-46
2021/04/14 08:06:28;;;;;;;6.03;5.30;;;13.70;36.10;;;;;;5015860;28;20950;-43
2021/04/14 08:08:54;;;;;;;8.87;5.03;;;13.70;36.70;;;;;;5021092;28;20444;-42
2021/04/14 08:11:30;;;;;;;6.23;4.90;;;13.80;36.40;;;;;;5030664;28;20432;-43
2021/04/14 08:14:11;;;;;;;4.90;4.50;;;13.80;36.00;;;;;;5021342;28;20580;-41
2021/04/14 08:16:40;;;;;;;5.63;5.10;;;14.00;36.10;;;;;;5017650;28;20497;-42
2021/04/14 08:19:17;;;;;;;5.10;3.93;;;14.10;36.30;;;;;;5025784;28;20912;-44
2021/04/14 08:22:13;;;;;;;5.37;3.80;;;14.20;36.10;;;;;;5028992;28;20442;-42
2021/04/14 08:24:59;;;;;;;5.97;4.13;;;14.30;35.20;;;;;;5023473;28;20432;-43
2021/04/14 08:27:37;;;;;;;5.07;4.33;;;14.30;35.50;;;;;;5023743;28;20451;-44
2021/04/14 08:30:05;;;;;;;5.20;4.63;;;14.10;35.40;;;;;;5032475;28;20431;-43
2021/04/14 08:32:33;;;;;;;8.20;4.47;;;14.10;35.80;;;;;;5025977;28;20448;-44
2021/04/14 08:35:03;;;;;;;5.40;4.47;;;14.20;35.70;;;;;;5030976;28;20536;-43
2021/04/14 08:37:29;;;;;;;4.50;3.67;;;14.30;36.60;;;;;;5027377;28;20438;-43
2021/04/14 08:40:22;;;;;;;6.03;4.20;;;14.50;37.20;;;;;;5019010;28;20425;-43
2021/04/14 08:42:49;;;;;;;5.80;3.27;;;14.60;35.80;;;;;;5021825;28;20441;-46
2021/04/14 08:45:30;;;;;;;4.07;3.53;;;14.70;36.10;;;;;;5027755;28;20432;-43
2021/04/14 08:48:08;;;;;;;5.73;3.90;;;14.80;35.50;;;;;;5029450;28;20443;-43
2021/04/14 08:50:41;;;;;;;10.73;3.80;;;14.90;36.90;;;;;;5027920;28;20441;-42
2021/04/14 08:53:13;;;;;;;5.13;3.83;;;15.10;36.40;;;;;;5022591;28;20512;-44
2021/04/14 08:55:41;;;;;;;4.80;3.53;;;15.20;35.60;;;;;;5017823;28;20435;-43
2021/04/14 08:58:07;;;;;;;5.07;3.53;;;15.40;34.50;;;;;;5020712;28;20846;-44
2021/04/14 09:00:33;;;;;;;3.27;2.97;;;15.50;34.60;;;;;;5025493;28;20538;-46
2021/04/14 09:03:07;;;;;;;4.63;3.73;;;15.60;34.10;;;;;;5031559;28;20523;-47
2021/04/14 09:05:36;;;;;;;4.73;3.50;;;15.60;34.40;;;;;;5024918;28;20439;-48
2021/04/14 09:08:03;;;;;;;7.50;3.43;;;15.60;34.30;;;;;;5022289;28;20833;-46
2021/04/14 09:10:41;;;;;;;4.17;3.20;;;15.60;35.10;;;;;;5016176;28;20767;-48
2021/04/14 09:13:09;;;;;;;6.37;3.47;;;15.80;33.00;;;;;;5027009;28;21041;-49
2021/04/14 09:15:55;;;;;;;3.23;2.70;;;15.90;33.50;;;;;;5024190;28;21053;-46
2021/04/14 09:18:30;;;;;;;4.43;2.83;;;16.00;32.60;;;;;;5019321;28;20520;-48
2021/04/14 09:21:07;;;;;;;3.90;2.70;;;16.00;31.60;;;;;;5013826;28;20914;-46
2021/04/14 09:23:38;;;;;;;4.13;2.93;;;15.80;31.90;;;;;;5016049;28;20442;-47
2021/04/14 09:26:14;;;;;;;3.37;2.70;;;15.80;32.20;;;;;;5006322;28;20455;-45
2021/04/14 09:28:47;;;;;;;4.63;3.50;;;15.70;31.50;;;;;;5026056;28;20442;-48
2021/04/14 09:31:40;;;;;;;4.10;3.30;;;15.60;31.70;;;;;;5025234;28;20437;-47
2021/04/14 09:34:30;;;;;;;2.90;2.57;;;15.70;31.30;;;;;;5012914;28;21065;-47
2021/04/14 09:37:23;;;;;;;2.63;2.43;;;15.70;30.80;;;;;;5029026;28;20523;-49
2021/04/14 09:39:50;;;;;;;4.00;2.70;;;15.60;30.20;;;;;;5026122;28;20928;-49
2021/04/14 09:42:22;;;;;;;5.40;2.37;;;15.50;30.60;;;;;;5026633;28;20562;-48
2021/04/14 09:44:51;;;;;;;3.10;2.77;;;15.60;31.90;;;;;;5018384;28;20433;-48
2021/04/14 09:47:25;;;;;;;2.93;2.73;;;15.70;32.10;;;;;;5026221;28;20445;-48
2021/04/14 09:49:53;;;;;;;4.93;2.57;;;15.80;31.00;;;;;;5012909;28;20478;-47
2021/04/14 09:52:46;;;;;;;3.33;2.50;;;15.30;31.30;;;;;;5023527;28;20431;-48
2021/04/14 09:55:34;;;;;;;3.43;2.50;;;15.50;32.10;;;;;;5026101;28;20522;-47
2021/04/14 09:58:12;;;;;;;3.83;2.40;;;15.90;32.30;;;;;;5016570;28;20460;-47
2021/04/14 10:00:43;;;;;;;3.47;3.17;;;16.10;30.90;;;;;;5022083;28;20553;-48
2021/04/14 10:03:31;;;;;;;3.43;2.17;;;16.00;31.50;;;;;;5016641;28;20847;-49
2021/04/14 10:06:06;;;;;;;7.47;2.00;;;15.70;32.50;;;;;;5017038;28;20429;-52
2021/04/14 10:08:32;;;;;;;2.87;2.07;;;15.20;32.90;;;;;;5014807;28;20490;-49
2021/04/14 10:10:58;;;;;;;2.80;2.03;;;14.60;34.30;;;;;;5032472;28;20431;-47
2021/04/14 10:13:29;;;;;;;3.43;2.13;;;14.30;35.00;;;;;;5024901;28;20554;-48
2021/04/14 10:15:55;;;;;;;4.63;2.40;;;14.20;36.30;;;;;;5033757;28;20196;-45
2021/04/14 10:18:29;;;;;;;2.93;2.60;;;13.60;37.70;;;;;;5030323;28;20482;-48
2021/04/14 10:20:55;;;;;;;3.77;2.67;;;13.10;38.70;;;;;;5017325;28;20473;-48
2021/04/14 10:23:26;;;;;;;2.37;2.17;;;12.70;39.40;;;;;;5020111;28;20463;-46
2021/04/14 10:26:04;;;;;;;2.70;2.50;;;12.50;40.30;;;;;;5026845;28;20460;-46
2021/04/14 10:28:30;;;;;;;3.40;2.23;;;12.30;40.50;;;;;;5021035;28;20490;-44
2021/04/14 10:31:08;;;;;;;2.63;2.27;;;12.00;41.10;;;;;;5024771;28;21107;-47
2021/04/14 10:33:35;;;;;;;2.57;2.37;;;12.10;41.70;;;;;;5023489;28;20337;-48
2021/04/14 10:36:29;;;;;;;3.20;2.63;;;11.80;42.10;;;;;;5023897;28;20438;-44
2021/04/14 10:38:55;;;;;;;3.50;3.20;;;11.70;43.00;;;;;;5023944;28;20811;-44
2021/04/14 10:41:30;;;;;;;4.27;3.97;;;11.90;42.60;;;;;;5015132;28;20425;-47
2021/04/14 10:43:57;;;;;;;3.40;2.90;;;12.00;41.80;;;;;;5027279;28;20699;-46
2021/04/14 10:46:28;;;;;;;4.60;3.33;;;12.10;41.70;;;;;;5019624;28;20432;-48
2021/04/14 10:49:05;;;;;;;4.13;2.40;;;12.30;41.30;;;;;;5027883;28;20531;-48
2021/04/14 10:51:40;;;;;;;2.47;2.27;;;11.90;41.20;;;;;;5010367;28;20429;-45
2021/04/14 10:54:11;;;;;;;5.93;2.10;;;11.70;41.80;;;;;;5013700;28;21005;-44
2021/04/14 10:56:36;;;;;;;3.00;2.70;;;11.90;41.70;;;;;;5023473;28;20433;-47
2021/04/14 10:59:06;;;;;;;2.57;2.37;;;12.30;41.60;;;;;;5024492;28;20432;-47
2021/04/14 11:01:38;;;;;;;4.50;2.60;;;12.40;40.30;;;;;;5020187;28;20194;-47
2021/04/14 11:04:16;;;;;;;3.10;2.80;;;12.60;39.10;;;;;;5018197;28;20448;-47
2021/04/14 11:06:49;;;;;;;4.30;3.40;;;12.90;40.10;;;;;;5023898;28;20432;-46
2021/04/14 11:09:16;;;;;;;2.47;2.27;;;13.00;39.40;;;;;;5021405;28;20433;-46
2021/04/14 11:11:43;;;;;;;2.00;1.80;;;13.20;37.90;;;;;;5017209;28;20444;-47
2021/04/14 11:14:11;;;;;;;4.03;2.60;;;13.00;36.50;;;;;;5019512;28;20598;-47
2021/04/14 11:16:39;;;;;;;2.40;2.20;;;13.00;35.40;;;;;;5028887;28;20440;-46
2021/04/14 11:19:20;;;;;;;3.33;2.10;;;13.20;35.40;;;;;;5021833;28;20468;-48
2021/04/14 11:21:47;;;;;;;3.17;2.10;;;13.20;33.80;;;;;;5011529;28;20448;-48
2021/04/14 11:24:17;;;;;;;1.70;1.60;;;12.80;32.70;;;;;;5023200;28;20436;-48
2021/04/14 11:26:54;;;;;;;2.30;2.10;;;13.00;33.30;;;;;;5020491;28;20436;-49
2021/04/14 11:29:29;;;;;;;2.77;2.00;;;13.30;32.90;;;;;;5018612;28;20440;-46
2021/04/14 11:31:55;;;;;;;3.73;2.47;;;13.50;32.30;;;;;;5018648;28;20435;-44
2021/04/14 11:34:33;;;;;;;3.40;2.60;;;13.80;34.10;;;;;;5023546;28;20488;-45
2021/04/14 11:37:04;;;;;;;2.53;2.33;;;14.00;33.40;;;;;;5031740;28;20428;-44
2021/04/14 11:39:49;;;;;;;2.57;2.37;;;14.20;33.50;;;;;;5026745;28;20445;-46
2021/04/14 11:42:18;;;;;;;3.40;2.17;;;14.50;33.60;;;;;;5031503;28;20436;-43
2021/04/14 11:44:52;;;;;;;3.23;2.20;;;14.60;32.90;;;;;;5024950;28;20979;-44
2021/04/14 11:47:28;;;;;;;2.43;2.23;;;14.80;32.50;;;;;;5026462;28;20443;-43
2021/04/14 11:49:55;;;;;;;3.00;2.00;;;14.90;32.30;;;;;;5021533;28;20448;-44
2021/04/14 11:52:23;;;;;;;3.17;2.20;;;14.90;31.70;;;;;;5014395;28;20429;-44
2021/04/14 11:54:50;;;;;;;2.03;1.87;;;15.20;32.40;;;;;;5026236;28;20487;-45
2021/04/14 11:57:19;;;;;;;4.40;2.33;;;15.20;31.40;;;;;;5020810;28;20475;-45
2021/04/14 11:59:47;;;;;;;2.70;2.50;;;15.20;30.00;;;;;;5022806;28;20939;-44
2021/04/14 12:02:29;;;;;;;2.13;1.93;;;15.30;29.50;;;;;;5021567;28;20429;-45
2021/04/14 12:04:57;;;;;;;2.83;2.03;;;15.50;29.70;;;;;;5027905;28;20439;-48
2021/04/14 12:07:22;;;;;;;4.13;2.70;;;15.60;30.50;;;;;;5034952;28;20436;-48
2021/04/14 12:09:48;;;;;;;2.37;2.17;;;15.70;31.50;;;;;;5037122;28;20424;-48
2021/04/14 12:12:14;;;;;;;2.80;2.00;;;15.80;31.10;;;;;;5041212;28;20189;-45
2021/04/14 12:14:39;;;;;;;2.43;1.90;;;15.90;30.00;;;;;;5036616;28;20228;-46
2021/04/14 12:17:05;;;;;;;2.63;2.40;;;15.90;30.00;;;;;;5032877;28;20200;-48
2021/04/14 12:19:32;;;;;;;3.17;1.83;;;15.90;30.00;;;;;;5033465;28;20205;-46
2021/04/14 12:21:59;;;;;;;2.13;1.97;;;16.10;30.00;;;;;;5030936;28;20236;-47
2021/04/14 12:24:25;;;;;;;2.97;2.10;;;16.00;29.90;;;;;;5039273;28;20424;-49
2021/04/14 12:26:52;;;;;;;3.37;2.50;;;15.90;30.40;;;;;;5025444;28;20425;-48
2021/04/14 12:29:17;;;;;;;7.33;2.80;;;15.90;30.70;;;;;;5012177;28;20455;-47
2021/04/14 12:31:44;;;;;;;6.30;4.73;;;16.00;30.70;;;;;;5032442;28;20836;-48
2021/04/14 12:34:11;;;;;;;3.87;2.30;;;16.00;30.80;;;;;;5032503;28;20228;-45
2021/04/14 12:36:37;;;;;;;4.97;2.63;;;15.90;31.20;;;;;;5032579;28;20907;-46
2021/04/14 12:39:03;;;;;;;5.43;3.17;;;15.90;32.40;;;;;;5033228;28;20430;-46
2021/04/14 12:41:29;;;;;;;2.60;1.93;;;15.70;33.00;;;;;;5032194;28;20945;-48
2021/04/14 12:43:55;;;;;;;2.57;2.37;;;15.40;33.40;;;;;;5032598;28;20428;-47
2021/04/14 12:46:21;;;;;;;3.10;2.60;;;15.30;34.20;;;;;;5032357;28;20251;-46
2021/04/14 12:48:50;;;;;;;2.47;2.30;;;15.20;33.90;;;;;;5030669;28;21752;-44
2021/04/14 12:51:21;;;;;;;2.43;2.23;;;15.10;34.60;;;;;;5028643;28;20657;-47
2021/04/14 12:54:01;;;;;;;7.30;2.63;;;14.80;35.00;;;;;;5038298;28;20493;-48
2021/04/14 12:56:31;;;;;;;2.17;1.87;;;14.70;35.10;;;;;;5045849;28;20434;-48
2021/04/14 12:59:05;;;;;;;2.30;2.10;;;14.80;35.30;;;;;;5041422;28;20910;-46
2021/04/14 13:01:31;;;;;;;2.23;1.80;;;14.70;34.80;;;;;;5045779;28;20432;-49
2021/04/14 13:04:05;;;;;;;2.90;1.73;;;14.90;34.60;;;;;;5045700;28;20463;-47
2021/04/14 13:06:42;;;;;;;4.30;2.67;;;15.00;34.50;;;;;;5043276;28;20424;-49